createdAt,value
2023-05-18T00:01:21.871Z,6.60
2023-05-18T00:03:48.958Z,6.20
2023-05-18T00:06:16.998Z,7.40
2023-05-18T00:08:43.786Z,7.30
2023-05-18T00:11:11.118Z,6.50
2023-05-18T00:13:38.032Z,7.20
2023-05-18T00:16:04.911Z,7.20
2023-05-18T00:18:33.616Z,6.90
2023-05-18T00:21:01.379Z,6.70
2023-05-18T00:23:30.274Z,6.40
2023-05-18T00:25:58.172Z,7.60
2023-05-18T00:28:25.284Z,7.00
2023-05-18T00:30:55.663Z,6.70
2023-05-18T00:33:22.638Z,6.60
2023-05-18T00:35:50.041Z,6.80
2023-05-18T00:38:17.080Z,7.70
2023-05-18T00:40:44.604Z,6.90
2023-05-18T00:43:12.649Z,6.20
2023-05-18T00:45:40.124Z,7.30
2023-05-18T00:48:07.443Z,6.70
2023-05-18T00:50:35.727Z,7.20
2023-05-18T00:53:02.485Z,7.90
2023-05-18T00:55:29.458Z,8.60
2023-05-18T00:57:56.822Z,8.50
2023-05-18T01:00:23.813Z,8.30
2023-05-18T01:02:52.500Z,7.90
2023-05-18T01:05:21.642Z,8.40
2023-05-18T01:07:49.839Z,7.10
2023-05-18T01:10:18.100Z,8.50
2023-05-18T01:12:53.131Z,7.90
2023-05-18T01:15:27.417Z,7.80
2023-05-18T01:18:00.023Z,8.80
2023-05-18T01:20:49.393Z,8.00
2023-05-18T01:23:29.034Z,8.40
2023-05-18T01:25:56.098Z,7.80
2023-05-18T01:28:28.365Z,7.40
2023-05-18T01:30:55.445Z,8.10
2023-05-18T01:33:24.104Z,8.20
2023-05-18T01:35:51.388Z,8.10
2023-05-18T01:38:27.747Z,8.00
2023-05-18T01:41:16.437Z,8.60
2023-05-18T01:43:54.333Z,8.80
2023-05-18T01:46:25.233Z,9.00
2023-05-18T01:48:54.607Z,9.50
2023-05-18T01:51:21.421Z,9.30
2023-05-18T01:53:57.704Z,9.50
2023-05-18T01:56:24.680Z,9.80
2023-05-18T01:58:52.657Z,9.10
2023-05-18T02:01:22.179Z,10.20
2023-05-18T02:03:50.095Z,9.80
2023-05-18T02:06:17.013Z,9.50
2023-05-18T02:08:44.260Z,10.20
2023-05-18T02:11:11.514Z,9.80
2023-05-18T02:13:39.679Z,10.40
2023-05-18T02:16:07.536Z,11.40
2023-05-18T02:18:35.740Z,11.00
2023-05-18T02:21:03.802Z,11.10
2023-05-18T02:23:31.852Z,10.40
2023-05-18T02:25:58.731Z,11.50
2023-05-18T02:28:25.529Z,10.40
2023-05-18T02:30:52.431Z,10.10
2023-05-18T02:33:25.624Z,10.60
2023-05-18T02:35:52.875Z,10.30
2023-05-18T02:38:20.731Z,10.40
2023-05-18T02:40:48.823Z,9.80
2023-05-18T02:43:16.725Z,11.10
2023-05-18T02:45:43.538Z,12.10
2023-05-18T02:48:10.826Z,13.30
2023-05-18T02:50:37.721Z,12.90
2023-05-18T02:53:04.906Z,13.10
2023-05-18T02:55:32.085Z,11.70
2023-05-18T03:00:59.795Z,10.10
2023-05-18T03:03:29.226Z,9.60
2023-05-18T03:05:56.094Z,9.20
2023-05-18T03:08:26.213Z,9.40
2023-05-18T03:10:53.306Z,9.70
2023-05-18T03:13:20.568Z,9.90
2023-05-18T03:15:48.710Z,9.40
2023-05-18T03:18:16.688Z,9.40
2023-05-18T03:20:44.246Z,8.90
2023-05-18T03:23:11.511Z,9.20
2023-05-18T03:25:38.866Z,9.00
2023-05-18T03:28:06.544Z,9.10
2023-05-18T03:30:35.151Z,9.60
2023-05-18T03:33:02.923Z,8.90
2023-05-18T03:35:30.558Z,9.60
2023-05-18T03:37:57.543Z,9.30
2023-05-18T03:40:24.669Z,9.40
2023-05-18T03:42:51.615Z,10.00
2023-05-18T03:45:18.618Z,9.80
2023-05-18T03:47:45.773Z,9.90
2023-05-18T03:50:12.879Z,10.00
2023-05-18T03:52:42.189Z,9.90
2023-05-18T03:55:09.026Z,10.30
2023-05-18T03:57:35.892Z,9.10
2023-05-18T04:00:11.203Z,9.40
2023-05-18T04:02:44.254Z,9.50
2023-05-18T04:05:11.503Z,9.80
2023-05-18T04:07:43.331Z,9.90
2023-05-18T04:10:11.522Z,9.80
2023-05-18T04:12:39.620Z,9.70
2023-05-18T04:15:07.556Z,10.30
2023-05-18T04:17:35.317Z,9.30
2023-05-18T04:20:11.078Z,9.50
2023-05-18T04:22:43.018Z,9.90
2023-05-18T04:25:12.649Z,9.70
2023-05-18T04:27:41.224Z,9.80
2023-05-18T04:30:10.953Z,10.10
2023-05-18T04:32:42.216Z,9.10
2023-05-18T04:35:10.308Z,10.40
2023-05-18T04:37:39.816Z,10.00
2023-05-18T04:40:12.259Z,9.40
2023-05-18T04:42:50.077Z,9.90
2023-05-18T04:45:25.508Z,10.10
2023-05-18T04:47:55.389Z,10.10
2023-05-18T04:50:23.121Z,10.50
2023-05-18T04:52:50.460Z,9.70
2023-05-18T04:55:27.332Z,10.40
2023-05-18T04:58:00.932Z,10.70
2023-05-18T05:00:28.817Z,9.80
2023-05-18T05:02:56.394Z,9.30
2023-05-18T05:05:24.135Z,9.30
2023-05-18T05:07:52.081Z,10.10
2023-05-18T05:10:20.302Z,9.40
2023-05-18T05:12:49.716Z,10.00
2023-05-18T05:15:17.902Z,11.00
2023-05-18T05:17:49.195Z,9.20
2023-05-18T05:20:16.949Z,9.50
2023-05-18T05:22:44.046Z,10.80
2023-05-18T05:25:13.453Z,11.00
2023-05-18T05:27:40.785Z,10.70
2023-05-18T05:30:08.508Z,11.70
2023-05-18T05:32:37.040Z,10.00
2023-05-18T05:35:06.755Z,11.10
2023-05-18T05:37:34.770Z,10.10
2023-05-18T05:40:02.830Z,10.70
2023-05-18T05:42:33.183Z,10.00
2023-05-18T05:45:00.483Z,9.70
2023-05-18T05:47:27.916Z,10.60
2023-05-18T05:49:55.240Z,9.20
2023-05-18T05:52:22.630Z,10.50
2023-05-18T05:54:49.549Z,9.90
2023-05-18T05:57:19.652Z,10.20
2023-05-18T05:59:46.566Z,10.10
2023-05-18T06:02:14.375Z,10.00
2023-05-18T06:04:41.310Z,9.80
2023-05-18T06:07:10.479Z,9.30
2023-05-18T06:09:38.142Z,9.90
2023-05-18T06:12:05.676Z,10.00
2023-05-18T06:14:36.976Z,9.80
2023-05-18T06:17:08.317Z,9.00
2023-05-18T06:19:35.240Z,9.70
2023-05-18T06:22:03.302Z,9.40
2023-05-18T06:24:36.595Z,10.60
2023-05-18T06:27:24.487Z,10.90
2023-05-18T06:30:10.450Z,10.20
2023-05-18T06:32:57.004Z,8.90
2023-05-18T06:35:24.381Z,10.30
2023-05-18T06:37:51.194Z,10.40
2023-05-18T06:40:18.179Z,10.70
2023-05-18T06:42:45.734Z,10.40
2023-05-18T06:45:28.056Z,10.50
2023-05-18T06:48:00.683Z,9.80
2023-05-18T06:50:29.344Z,10.60
2023-05-18T06:52:56.264Z,10.60
2023-05-18T06:55:23.064Z,10.70
2023-05-18T06:57:52.443Z,11.00
2023-05-18T07:00:20.292Z,11.20
2023-05-18T07:02:47.201Z,10.90
2023-05-18T07:05:14.667Z,10.90
2023-05-18T07:07:41.961Z,11.20
2023-05-18T07:10:09.986Z,10.00
2023-05-18T07:12:37.800Z,10.80
2023-05-18T07:15:07.691Z,11.10
2023-05-18T07:17:34.704Z,10.70
2023-05-18T07:20:01.725Z,10.10
2023-05-18T07:22:28.979Z,10.10
2023-05-18T07:24:57.990Z,9.80
2023-05-18T07:27:24.769Z,9.50
2023-05-18T07:29:51.656Z,10.60
2023-05-18T07:32:18.549Z,10.50
2023-05-18T07:34:49.062Z,10.00
2023-05-18T07:37:15.862Z,9.30
2023-05-18T07:39:42.855Z,10.30
2023-05-18T07:42:10.830Z,10.10
2023-05-18T07:44:37.697Z,11.40
2023-05-18T07:47:04.968Z,10.40
2023-05-18T07:49:32.097Z,9.30
2023-05-18T07:52:00.120Z,10.10
2023-05-18T07:54:28.936Z,9.20
2023-05-18T07:56:59.118Z,9.80
2023-05-18T07:59:27.302Z,9.00
2023-05-18T08:01:54.552Z,9.60
2023-05-18T08:04:21.284Z,10.00
2023-05-18T08:06:48.228Z,9.40
2023-05-18T08:09:15.101Z,9.00
2023-05-18T08:11:43.041Z,9.90
2023-05-18T08:14:10.084Z,8.60
2023-05-18T08:16:37.282Z,8.00
2023-05-18T08:19:04.309Z,9.90
2023-05-18T08:21:32.688Z,10.40
2023-05-18T08:24:00.082Z,9.10
2023-05-18T08:26:27.372Z,9.10
2023-05-18T08:28:55.057Z,8.90
2023-05-18T08:31:21.879Z,8.90
2023-05-18T08:33:49.585Z,8.50
2023-05-18T08:36:16.752Z,9.00
2023-05-18T08:38:43.813Z,9.00
2023-05-18T08:41:20.564Z,9.60
2023-05-18T08:43:51.835Z,8.70
2023-05-18T08:46:29.552Z,10.40
2023-05-18T08:48:56.585Z,8.80
2023-05-18T08:51:23.728Z,10.20
2023-05-18T08:53:52.132Z,8.10
2023-05-18T08:56:22.592Z,8.60
2023-05-18T08:58:51.048Z,8.00
2023-05-18T09:01:20.582Z,8.80
2023-05-18T09:03:48.909Z,8.00
2023-05-18T09:06:15.693Z,9.20
2023-05-18T09:08:42.717Z,7.40
2023-05-18T09:11:10.000Z,7.30
2023-05-18T09:13:37.271Z,7.70
2023-05-18T09:16:04.543Z,8.30
2023-05-18T09:18:31.525Z,7.60
2023-05-18T09:20:58.215Z,8.70
2023-05-18T09:23:25.111Z,7.10
2023-05-18T09:25:52.013Z,8.60
2023-05-18T09:28:33.856Z,8.30
2023-05-18T09:31:00.872Z,8.70
2023-05-18T09:33:33.557Z,7.10
2023-05-18T09:36:00.549Z,8.10
2023-05-18T09:38:28.361Z,7.70
2023-05-18T09:40:55.154Z,8.60
2023-05-18T09:43:22.025Z,8.20
2023-05-18T09:45:49.021Z,7.40
2023-05-18T09:48:16.036Z,7.80
2023-05-18T09:50:44.496Z,7.70
2023-05-18T09:53:13.119Z,9.10
2023-05-18T09:55:47.555Z,7.50
2023-05-18T09:58:15.186Z,7.40
2023-05-18T10:00:43.537Z,8.20
2023-05-18T10:03:21.479Z,7.40
2023-05-18T10:05:48.470Z,8.20
2023-05-18T10:08:15.788Z,7.70
2023-05-18T10:10:45.200Z,7.40
2023-05-18T10:13:14.332Z,7.00
2023-05-18T10:15:49.017Z,7.70
2023-05-18T10:18:21.295Z,7.40
2023-05-18T10:20:48.862Z,7.60
2023-05-18T10:23:17.266Z,7.40
2023-05-18T10:25:45.270Z,7.20
2023-05-18T10:28:12.210Z,7.10
2023-05-18T10:30:43.332Z,8.10
2023-05-18T10:33:20.728Z,7.70
2023-05-18T10:35:51.985Z,7.40
2023-05-18T10:38:23.432Z,7.50
2023-05-18T10:40:52.101Z,7.90
2023-05-18T10:43:21.928Z,8.20
2023-05-18T10:45:58.980Z,7.80
2023-05-18T10:48:27.363Z,7.90
2023-05-18T10:50:55.318Z,7.70
2023-05-18T10:53:26.420Z,8.30
2023-05-18T10:55:53.551Z,8.10
2023-05-18T10:58:21.842Z,8.00
2023-05-18T11:00:53.790Z,7.70
2023-05-18T11:03:21.978Z,9.00
2023-05-18T11:05:50.785Z,8.70
2023-05-18T11:08:26.237Z,8.10
2023-05-18T11:11:03.962Z,7.90
2023-05-18T11:13:35.083Z,7.50
2023-05-18T11:16:04.801Z,7.70
2023-05-18T11:18:39.485Z,7.90
2023-05-18T11:21:45.982Z,7.20
2023-05-18T11:24:24.266Z,8.20
2023-05-18T11:26:55.940Z,8.50
2023-05-18T11:29:32.177Z,8.00
2023-05-18T11:31:59.119Z,6.90
2023-05-18T11:34:50.091Z,7.50
2023-05-18T11:37:39.397Z,8.50
2023-05-18T11:40:11.430Z,6.70
2023-05-18T11:42:41.525Z,7.30
2023-05-18T11:45:09.892Z,7.80
2023-05-18T11:47:37.318Z,7.60
2023-05-18T11:50:07.066Z,7.30
2023-05-18T11:52:45.462Z,7.20
2023-05-18T11:55:16.728Z,7.60
2023-05-18T11:57:47.124Z,7.60
2023-05-18T12:00:17.908Z,7.80
2023-05-18T12:02:46.230Z,7.00
2023-05-18T12:05:13.612Z,6.30
2023-05-18T12:07:40.875Z,17.30
2023-05-18T12:10:09.899Z,10.30
2023-05-18T12:12:37.859Z,7.80
2023-05-18T12:15:06.621Z,6.10
2023-05-18T12:17:40.400Z,8.40
2023-05-18T12:20:09.228Z,7.60
2023-05-18T12:22:40.425Z,7.90
2023-05-18T12:25:07.875Z,7.80
2023-05-18T12:27:42.247Z,8.30
2023-05-18T12:30:17.212Z,7.90
2023-05-18T12:32:48.379Z,8.40
2023-05-18T12:35:15.356Z,8.70
2023-05-18T12:37:45.253Z,7.90
2023-05-18T12:40:14.135Z,6.90
2023-05-18T12:42:54.254Z,7.60
2023-05-18T12:45:23.195Z,7.80
2023-05-18T12:47:54.864Z,7.40
2023-05-18T12:50:22.951Z,8.60
2023-05-18T12:52:50.234Z,8.20
2023-05-18T12:55:21.196Z,8.80
2023-05-18T12:58:03.934Z,8.10
2023-05-18T13:00:34.423Z,8.40
2023-05-18T13:03:06.534Z,8.60
2023-05-18T13:05:33.585Z,7.80
2023-05-18T13:08:01.333Z,8.40
2023-05-18T13:10:32.468Z,8.10
2023-05-18T13:13:03.185Z,9.30
2023-05-18T13:15:37.373Z,7.70
2023-05-18T13:18:05.324Z,7.50
2023-05-18T13:20:40.357Z,7.50
2023-05-18T13:23:09.120Z,8.50
2023-05-18T13:25:36.288Z,8.30
2023-05-18T13:28:04.654Z,7.50
2023-05-18T13:30:33.440Z,8.20
2023-05-18T13:33:05.573Z,7.80
2023-05-18T13:35:32.756Z,7.60
2023-05-18T13:38:00.130Z,9.00
2023-05-18T13:40:27.008Z,7.20
2023-05-18T13:42:54.018Z,7.40
2023-05-18T13:45:21.165Z,6.60
2023-05-18T13:47:52.911Z,7.50
2023-05-18T13:50:20.425Z,7.90
2023-05-18T13:52:47.681Z,7.50
2023-05-18T13:55:14.729Z,14.60
2023-05-18T13:57:41.882Z,9.50
2023-05-18T14:00:10.812Z,7.30
2023-05-18T14:02:41.195Z,7.10
2023-05-18T14:05:09.171Z,12.00
2023-05-18T14:07:36.764Z,10.30
2023-05-18T14:10:04.823Z,25.70
2023-05-18T14:12:32.033Z,17.00
2023-05-18T14:14:59.231Z,10.30
2023-05-18T14:17:29.403Z,7.70
2023-05-18T14:19:56.766Z,14.90
2023-05-18T14:22:25.754Z,10.60
2023-05-18T14:24:52.911Z,9.20
2023-05-18T14:27:20.028Z,9.70
2023-05-18T14:29:47.364Z,7.40
2023-05-18T14:32:14.157Z,7.10
2023-05-18T14:34:41.535Z,5.70
2023-05-18T14:37:08.541Z,5.30
2023-05-18T14:39:35.724Z,7.30
2023-05-18T14:42:02.749Z,5.50
2023-05-18T14:44:32.764Z,5.20
2023-05-18T14:47:01.087Z,4.60
2023-05-18T14:49:28.056Z,4.00
2023-05-18T14:51:54.878Z,4.20
2023-05-18T14:54:21.994Z,4.30
2023-05-18T14:56:48.787Z,4.90
2023-05-18T14:59:15.795Z,4.60
2023-05-18T15:01:43.016Z,3.60
2023-05-18T15:04:09.874Z,4.70
2023-05-18T15:06:37.168Z,3.80
2023-05-18T15:09:05.755Z,3.80
2023-05-18T15:11:32.531Z,4.20
2023-05-18T15:13:59.560Z,3.70
2023-05-18T15:16:26.513Z,3.70
2023-05-18T15:18:53.515Z,3.80
2023-05-18T15:21:20.507Z,3.20
2023-05-18T15:23:47.286Z,3.50
2023-05-18T15:26:14.472Z,3.50
2023-05-18T15:28:44.329Z,4.40
2023-05-18T15:31:11.186Z,4.70
2023-05-18T15:33:41.708Z,7.80
2023-05-18T15:36:09.633Z,7.30
2023-05-18T15:38:36.977Z,5.50
2023-05-18T15:41:03.823Z,8.40
2023-05-18T15:43:31.259Z,7.80
2023-05-18T15:45:58.274Z,7.00
2023-05-18T15:48:25.362Z,5.00
2023-05-18T15:50:52.132Z,5.80
2023-05-18T15:53:19.540Z,5.90
2023-05-18T15:55:46.508Z,8.40
2023-05-18T15:58:15.505Z,5.80
2023-05-18T16:00:42.267Z,6.30
2023-05-18T16:03:09.164Z,6.80
2023-05-18T16:05:36.274Z,6.00
2023-05-18T16:08:03.180Z,4.80
2023-05-18T16:10:30.816Z,7.40
2023-05-18T16:13:05.086Z,9.70
2023-05-18T16:15:33.586Z,9.20
2023-05-18T16:18:00.761Z,7.80
2023-05-18T16:20:27.834Z,6.80
2023-05-18T16:22:55.137Z,6.70
2023-05-18T16:25:22.929Z,4.90
2023-05-18T16:27:49.904Z,5.20
2023-05-18T16:30:17.415Z,5.20
2023-05-18T16:32:45.351Z,4.80
2023-05-18T16:35:12.366Z,5.50
2023-05-18T16:37:39.438Z,6.40
2023-05-18T16:40:07.467Z,5.20
2023-05-18T16:42:34.446Z,5.30
2023-05-18T16:45:01.593Z,5.90
2023-05-18T16:47:31.621Z,5.10
2023-05-18T16:49:58.682Z,5.90
2023-05-18T16:52:25.838Z,6.00
2023-05-18T16:54:52.780Z,6.50
2023-05-18T16:57:19.554Z,7.00
2023-05-18T16:59:46.296Z,5.70
2023-05-18T17:02:13.666Z,6.30
2023-05-18T17:04:49.091Z,6.80
2023-05-18T17:07:16.112Z,7.10
2023-05-18T17:09:43.013Z,6.50
2023-05-18T17:12:10.647Z,7.00
2023-05-18T17:14:38.895Z,8.40
2023-05-18T17:17:06.727Z,7.10
2023-05-18T17:19:34.460Z,7.80
2023-05-18T17:22:03.314Z,7.70
2023-05-18T17:24:30.740Z,7.50
2023-05-18T17:26:57.632Z,8.70
2023-05-18T17:29:24.971Z,7.00
2023-05-18T17:31:51.896Z,6.70
2023-05-18T17:34:18.824Z,7.80
2023-05-18T17:36:46.001Z,8.10
2023-05-18T17:39:15.157Z,7.90
2023-05-18T17:41:43.234Z,7.90
2023-05-18T17:44:13.484Z,8.70
2023-05-18T17:46:40.803Z,7.90
2023-05-18T17:49:07.806Z,7.90
2023-05-18T17:51:34.725Z,7.80
2023-05-18T17:54:01.651Z,8.90
2023-05-18T17:56:29.984Z,8.40
2023-05-18T17:58:58.397Z,9.40
2023-05-18T18:01:26.335Z,9.10
2023-05-18T18:03:53.596Z,9.50
2023-05-18T18:06:23.814Z,9.20
2023-05-18T18:08:55.341Z,9.30
2023-05-18T18:11:23.556Z,9.20
2023-05-18T18:13:50.608Z,8.20
2023-05-18T18:16:17.843Z,8.40
2023-05-18T18:18:45.067Z,8.90
2023-05-18T18:21:11.901Z,8.90
2023-05-18T18:23:39.541Z,9.70
2023-05-18T18:26:06.616Z,8.60
2023-05-18T18:28:34.371Z,8.90
2023-05-18T18:31:02.111Z,9.90
2023-05-18T18:33:30.115Z,9.60
2023-05-18T18:35:57.046Z,10.00
2023-05-18T18:38:26.681Z,9.30
2023-05-18T18:41:00.236Z,9.80
2023-05-18T18:43:27.836Z,9.80
2023-05-18T18:45:56.379Z,8.90
2023-05-18T18:48:23.912Z,8.50
2023-05-18T18:50:51.724Z,9.90
2023-05-18T18:53:18.506Z,8.30
2023-05-18T18:55:45.554Z,9.30
2023-05-18T18:58:12.353Z,8.70
2023-05-18T19:00:39.187Z,9.80
2023-05-18T19:03:06.327Z,7.70
2023-05-18T19:05:33.565Z,8.80
2023-05-18T19:08:01.344Z,9.30
2023-05-18T19:10:28.879Z,9.10
2023-05-18T19:12:58.825Z,8.90
2023-05-18T19:15:25.662Z,8.80
2023-05-18T19:17:53.132Z,9.30
2023-05-18T19:20:20.385Z,8.30
2023-05-18T19:22:47.504Z,7.30
2023-05-18T19:25:14.492Z,8.70
2023-05-18T19:27:41.565Z,7.90
2023-05-18T19:30:10.327Z,8.30
2023-05-18T19:32:37.735Z,8.30
2023-05-18T19:35:04.692Z,8.50
2023-05-18T19:37:31.648Z,8.30
2023-05-18T19:39:58.532Z,8.10
2023-05-18T19:42:25.691Z,8.70
2023-05-18T19:44:52.657Z,8.90
2023-05-18T19:47:19.423Z,9.20
2023-05-18T19:49:46.862Z,8.70
2023-05-18T19:52:13.785Z,8.60
2023-05-18T19:54:40.602Z,8.30
2023-05-18T19:57:07.415Z,8.10
2023-05-18T19:59:34.171Z,7.70
2023-05-18T20:02:04.280Z,7.50
2023-05-18T20:04:32.898Z,8.70
2023-05-18T20:07:00.730Z,7.80
2023-05-18T20:09:27.994Z,8.40
2023-05-18T20:11:55.453Z,8.60
2023-05-18T20:14:23.040Z,7.40
2023-05-18T20:16:55.045Z,7.30
2023-05-18T20:19:22.225Z,7.70
2023-05-18T20:21:49.495Z,7.50
2023-05-18T20:24:16.436Z,7.40
2023-05-18T20:26:43.521Z,6.80
2023-05-18T20:29:10.417Z,8.50
2023-05-18T20:31:37.965Z,6.80
2023-05-18T20:34:06.366Z,7.20
2023-05-18T20:36:35.294Z,6.20
2023-05-18T20:39:02.255Z,6.90
2023-05-18T20:41:29.408Z,7.50
2023-05-18T20:43:56.736Z,7.20
2023-05-18T20:46:24.209Z,7.10
2023-05-18T20:48:54.438Z,7.40
2023-05-18T20:51:22.831Z,6.40
2023-05-18T20:53:50.090Z,7.00
2023-05-18T20:56:17.654Z,6.30
2023-05-18T20:58:49.411Z,7.00
2023-05-18T21:01:16.556Z,8.80
2023-05-18T21:03:44.800Z,11.00
2023-05-18T21:06:14.573Z,11.50
2023-05-18T21:08:41.924Z,11.10
2023-05-18T21:11:09.388Z,9.40
2023-05-18T21:13:36.541Z,8.40
2023-05-18T21:16:07.808Z,7.80
2023-05-18T21:18:34.781Z,6.80
2023-05-18T21:21:01.861Z,7.20
2023-05-18T21:23:29.146Z,7.30
2023-05-18T21:25:56.619Z,6.60
2023-05-18T21:28:26.074Z,7.00
2023-05-18T21:30:54.249Z,6.50
2023-05-18T21:33:21.235Z,7.00
2023-05-18T21:35:48.630Z,6.20
2023-05-18T21:38:16.684Z,6.30
2023-05-18T21:40:44.095Z,7.30
2023-05-18T21:43:12.209Z,7.60
2023-05-18T21:45:39.118Z,6.80
2023-05-18T21:48:06.421Z,6.60
2023-05-18T21:50:34.225Z,7.30
2023-05-18T21:53:05.055Z,7.60
2023-05-18T21:55:32.295Z,8.20
2023-05-18T21:57:59.476Z,7.70
2023-05-18T22:00:26.398Z,8.00
2023-05-18T22:02:53.267Z,9.40
2023-05-18T22:05:19.977Z,7.30
2023-05-18T22:07:47.372Z,7.90
2023-05-18T22:10:14.257Z,7.50
2023-05-18T22:12:42.915Z,10.00
2023-05-18T22:15:10.123Z,10.40
2023-05-18T22:17:38.474Z,9.80
2023-05-18T22:20:09.020Z,8.60
2023-05-18T22:22:36.467Z,8.20
2023-05-18T22:25:03.400Z,7.50
2023-05-18T22:27:31.167Z,8.60
2023-05-18T22:29:58.606Z,9.20
2023-05-18T22:32:25.503Z,8.40
2023-05-18T22:34:53.014Z,8.80
2023-05-18T22:37:19.866Z,8.40
2023-05-18T22:39:46.834Z,9.60
2023-05-18T22:42:13.784Z,9.30
2023-05-18T22:44:40.733Z,8.70
2023-05-18T22:47:08.917Z,8.80
2023-05-18T22:49:36.281Z,9.60
2023-05-18T22:52:03.939Z,9.50
2023-05-18T22:54:30.929Z,9.80
2023-05-18T22:56:58.946Z,11.20
2023-05-18T22:59:28.045Z,10.30
2023-05-18T23:01:54.836Z,11.30
2023-05-18T23:04:21.778Z,10.40
2023-05-18T23:06:49.081Z,10.10
2023-05-18T23:09:16.485Z,9.50
2023-05-18T23:11:47.690Z,10.20
2023-05-18T23:14:14.792Z,9.40
2023-05-18T23:16:41.921Z,10.00
2023-05-18T23:19:09.758Z,9.30
2023-05-18T23:21:36.585Z,10.40
2023-05-18T23:24:04.828Z,11.00
2023-05-18T23:26:33.196Z,11.30
2023-05-18T23:29:00.826Z,10.90
2023-05-18T23:31:28.515Z,11.40
2023-05-18T23:33:55.541Z,12.80
2023-05-18T23:36:22.388Z,14.50
2023-05-18T23:38:49.261Z,15.20
2023-05-18T23:41:16.019Z,16.00
2023-05-18T23:43:44.644Z,13.90
2023-05-18T23:46:12.695Z,17.70
2023-05-18T23:48:40.185Z,25.90
2023-05-18T23:51:07.095Z,31.70
2023-05-18T23:53:33.993Z,20.90
2023-05-18T23:56:01.055Z,15.50
2023-05-18T23:58:29.191Z,12.70
